Time;durP1;ratioP1;P1;durP2;ratioP2;P2;SDS_P1;SDS_P2;PMS_P1;PMS_P2;Temp;Humidity;BMP_temperature;BMP_pressure;BME280_temperature;BME280_humidity;BME280_pressure;Samples;Min_cycle;Max_cycle;Signal;HPM_P1;HPM_P2
2022/09/16 00:01:13;;;;;;;4.20;1.63;;;;;;;26.21;38.10;101525.81;5070415;28;20044;-49
2022/09/16 00:03:41;;;;;;;3.95;1.27;;;;;;;26.22;37.97;101527.56;5070393;28;20498;-50
2022/09/16 00:06:29;;;;;;;2.85;1.50;;;;;;;26.17;38.09;101528.38;5070452;28;20083;-50
2022/09/16 00:08:59;;;;;;;4.50;1.30;;;;;;;26.18;38.06;101527.53;5066501;28;20394;-49
2022/09/16 00:11:28;;;;;;;6.28;1.60;;;;;;;26.17;37.94;101531.88;5070824;28;20513;-49
2022/09/16 00:13:57;;;;;;;3.58;0.95;;;;;;;26.16;38.04;101527.47;5073345;28;20078;-51
2022/09/16 00:16:29;;;;;;;4.07;1.25;;;;;;;26.16;37.79;101529.25;5072730;28;20028;-48
2022/09/16 00:19:02;;;;;;;3.45;1.40;;;;;;;26.16;38.06;101532.75;5072999;28;20032;-47
2022/09/16 00:21:31;;;;;;;4.05;1.20;;;;;;;26.15;38.15;101527.47;5071750;28;20034;-50
2022/09/16 00:23:59;;;;;;;4.28;1.10;;;;;;;26.13;38.04;101529.19;5065625;28;20028;-51
2022/09/16 00:26:28;;;;;;;3.03;1.10;;;;;;;26.12;37.92;101524.81;5070273;28;20032;-48
2022/09/16 00:28:57;;;;;;;2.72;1.30;;;;;;;26.07;38.19;101522.09;5050024;28;20044;-48
2022/09/16 00:31:25;;;;;;;5.07;1.30;;;;;;;25.99;38.14;101510.56;5035107;28;20136;-51
2022/09/16 00:33:54;;;;;;;4.40;1.35;;;;;;;26.10;37.86;101530.03;5052493;28;20099;-48
2022/09/16 00:36:23;;;;;;;3.50;1.08;;;;;;;26.09;38.24;101534.38;5052583;28;20047;-48
2022/09/16 00:38:56;;;;;;;4.25;1.40;;;;;;;26.04;38.15;101528.19;5052645;28;20931;-49
2022/09/16 00:41:29;;;;;;;3.00;1.17;;;;;;;26.06;38.30;101539.59;5051786;28;20487;-49
2022/09/16 00:44:00;;;;;;;3.55;1.20;;;;;;;26.06;38.24;101542.22;5043690;28;20028;-52
2022/09/16 00:46:32;;;;;;;4.38;1.33;;;;;;;26.06;38.13;101541.34;5050105;28;20025;-49
2022/09/16 00:49:05;;;;;;;3.78;1.20;;;;;;;26.02;38.16;101534.28;5048936;28;20601;-50
2022/09/16 00:51:34;;;;;;;3.03;1.10;;;;;;;26.00;37.91;101542.16;5049650;28;20029;-48
2022/09/16 00:54:04;;;;;;;5.35;1.50;;;;;;;26.00;38.11;101542.16;5031959;28;20035;-49
2022/09/16 00:56:36;;;;;;;3.17;1.17;;;;;;;26.00;38.27;101541.25;5043824;28;20107;-49
2022/09/16 00:59:27;;;;;;;2.65;1.33;;;;;;;25.99;38.10;101543.03;5047468;28;20064;-48
2022/09/16 01:01:58;;;;;;;2.70;1.20;;;;;;;26.00;38.17;101547.41;5049440;28;20033;-50
2022/09/16 01:04:31;;;;;;;5.70;1.77;;;;;;;25.98;38.00;101543.88;5048368;28;20033;-51
2022/09/16 01:07:00;;;;;;;3.47;1.15;;;;;;;26.00;38.16;101538.63;5053995;28;20106;-51
2022/09/16 01:09:29;;;;;;;2.90;1.05;;;;;;;25.99;38.35;101539.50;5049141;28;20030;-47
2022/09/16 01:11:58;;;;;;;3.10;1.10;;;;;;;25.95;38.17;101538.56;5047583;28;20024;-47
2022/09/16 01:15:10;;;;;;;3.78;1.45;;;;;;;25.98;38.28;101543.00;5053401;28;20029;-50
2022/09/16 01:17:19;;;;;;;4.35;1.30;;;;;;;25.97;38.09;101541.25;5043292;28;20029;-47
2022/09/16 01:19:53;;;;;;;4.82;1.35;;;;;;;25.94;38.16;101539.44;5032950;28;20033;-50
2022/09/16 01:22:44;;;;;;;3.47;1.27;;;;;;;25.91;37.94;101536.75;5032549;28;20032;-48
2022/09/16 01:25:51;;;;;;;4.88;1.33;;;;;;;25.90;38.05;101546.41;5040414;28;20472;-50
2022/09/16 01:28:20;;;;;;;2.38;1.23;;;;;;;25.88;38.04;101540.25;5062637;28;20048;-48
2022/09/16 01:31:13;;;;;;;3.55;1.20;;;;;;;25.86;38.25;101539.31;5070005;28;20036;-48
2022/09/16 01:33:56;;;;;;;3.70;1.02;;;;;;;25.88;38.23;101536.75;5061612;28;20037;-48
2022/09/16 01:36:51;;;;;;;3.78;1.35;;;;;;;25.84;38.12;101537.56;5066188;28;20510;-50
2022/09/16 01:39:37;;;;;;;3.10;0.90;;;;;;;25.82;38.18;101545.41;5065308;28;20615;-46
2022/09/16 01:42:45;;;;;;;4.38;0.90;;;;;;;25.85;38.21;101545.44;5059188;28;20190;-48
2022/09/16 01:45:38;;;;;;;3.15;0.95;;;;;;;25.81;37.91;101533.16;5062073;28;20079;-48
2022/09/16 01:48:30;;;;;;;4.72;1.35;;;;;;;25.85;38.27;101550.69;5051060;28;20024;-49
2022/09/16 01:51:17;;;;;;;4.45;1.15;;;;;;;25.87;37.82;101551.59;5049371;28;20068;-47
2022/09/16 01:53:51;;;;;;;6.57;1.88;;;;;;;25.82;38.03;101549.78;5070425;28;20028;-49
2022/09/16 01:56:27;;;;;;;4.93;1.38;;;;;;;25.84;37.91;101556.81;5071843;28;20071;-50
2022/09/16 01:59:02;;;;;;;4.57;1.27;;;;;;;25.78;38.15;101548.88;5055468;28;20081;-50
2022/09/16 02:01:48;;;;;;;;;;;;;;;25.82;37.77;101550.66;5077956;28;20034;-50
2022/09/16 02:04:24;;;;;;;1.98;1.30;;;;;;;25.82;38.02;101553.28;5052906;28;19912;-51
2022/09/16 02:06:54;;;;;;;3.95;0.90;;;;;;;25.80;38.05;101549.78;5041183;28;20160;-52
2022/09/16 02:09:30;;;;;;;3.45;0.95;;;;;;;25.75;38.20;101543.56;5057898;28;20044;-48
2022/09/16 02:12:04;;;;;;;5.82;1.20;;;;;;;25.78;37.97;101546.22;5074853;28;20059;-50
2022/09/16 02:14:36;;;;;;;3.17;0.82;;;;;;;25.73;38.00;101547.91;5054245;28;20387;-50
2022/09/16 02:17:10;;;;;;;3.30;0.88;;;;;;;25.70;37.87;101554.00;5051422;28;20032;-51
2022/09/16 02:19:45;;;;;;;4.25;1.27;;;;;;;25.73;38.05;101551.41;5056575;28;20029;-49
2022/09/16 02:22:20;;;;;;;7.47;1.02;;;;;;;25.72;38.05;101554.00;5079178;28;20398;-48
2022/09/16 02:24:49;;;;;;;2.85;1.08;;;;;;;25.71;37.71;101549.63;5060505;28;20092;-49
2022/09/16 02:27:19;;;;;;;3.28;1.27;;;;;;;25.70;38.03;101556.63;5054337;28;20269;-47
2022/09/16 02:29:52;;;;;;;4.82;1.02;;;;;;;25.72;38.08;101551.38;5078079;28;20027;-50
2022/09/16 02:32:23;;;;;;;3.50;1.10;;;;;;;25.67;37.89;101559.22;5070767;28;20380;-50
2022/09/16 02:34:53;;;;;;;4.28;1.38;;;;;;;25.61;38.17;101556.47;5070974;28;20115;-47
2022/09/16 02:37:28;;;;;;;4.38;1.08;;;;;;;25.61;38.01;101553.84;5071573;28;20111;-48
2022/09/16 02:39:56;;;;;;;;;;;;;;;25.66;37.76;101557.44;5075451;28;20028;-50
2022/09/16 02:42:25;;;;;;;3.28;1.13;;;;;;;25.65;37.86;101555.66;5059392;28;19923;-49
2022/09/16 02:44:53;;;;;;;4.53;1.42;;;;;;;25.64;37.87;101553.91;5059271;28;20109;-47
2022/09/16 02:47:45;;;;;;;2.45;0.73;;;;;;;25.61;37.92;101549.50;5077040;28;20049;-51
2022/09/16 02:50:18;;;;;;;5.20;1.35;;;;;;;25.62;37.90;101555.63;5074007;28;20083;-48
2022/09/16 02:52:51;;;;;;;2.95;1.10;;;;;;;25.65;38.08;101558.31;5076061;28;20376;-48
2022/09/16 02:55:25;;;;;;;3.45;1.35;;;;;;;25.59;38.15;101560.81;5048372;28;20032;-47
2022/09/16 02:57:54;;;;;;;3.80;1.17;;;;;;;25.55;38.22;101562.53;5060823;28;20031;-50
2022/09/16 03:00:24;;;;;;;7.70;1.48;;;;;;;25.57;38.25;101562.53;5071430;28;20032;-47
2022/09/16 03:02:55;;;;;;;3.63;0.95;;;;;;;25.59;38.01;101551.22;5053992;28;20119;-47
2022/09/16 03:05:29;;;;;;;3.03;0.85;;;;;;;25.59;37.89;101548.59;5055565;28;20028;-49
2022/09/16 03:08:01;;;;;;;3.25;1.15;;;;;;;25.59;37.79;101553.84;5058754;28;20024;-48
2022/09/16 03:10:37;;;;;;;3.78;1.50;;;;;;;25.57;38.02;101555.56;5072017;28;20430;-46
2022/09/16 03:13:12;;;;;;;4.43;1.38;;;;;;;25.51;37.84;101555.44;5053147;28;20063;-48
2022/09/16 03:16:15;;;;;;;1.98;0.80;;;;;;;25.47;37.58;101553.66;5075587;28;20024;-47
2022/09/16 03:19:03;;;;;;;1.80;0.90;;;;;;;25.52;37.86;101559.84;5064743;28;20438;-47
2022/09/16 03:21:34;;;;;;;4.95;1.30;;;;;;;25.54;38.11;101568.63;5070522;28;20044;-47
2022/09/16 03:24:11;;;;;;;7.43;1.70;;;;;;;25.50;38.03;101565.94;5057315;28;20402;-46
2022/09/16 03:26:46;;;;;;;4.00;0.90;;;;;;;25.48;38.09;101566.81;5049296;28;20024;-46
2022/09/16 03:29:22;;;;;;;1.67;0.90;;;;;;;25.45;38.19;101563.25;5048568;28;20171;-48
2022/09/16 03:32:06;;;;;;;3.22;1.10;;;;;;;25.44;37.96;101569.34;5052646;28;20031;-46
2022/09/16 03:34:55;;;;;;;3.23;1.37;;;;;;;25.46;37.82;101570.28;5053790;28;20028;-47
2022/09/16 03:37:25;;;;;;;3.72;1.40;;;;;;;25.46;37.95;101558.00;5044364;28;20041;-48
2022/09/16 03:39:57;;;;;;;2.85;1.30;;;;;;;25.50;37.67;101561.56;5056732;28;20094;-48
2022/09/16 03:42:26;;;;;;;8.45;1.60;;;;;;;25.46;38.09;101563.25;5065783;28;20105;-51
2022/09/16 03:44:56;;;;;;;2.50;1.10;;;;;;;25.43;37.70;101555.31;5073329;28;20016;-48
2022/09/16 03:47:24;;;;;;;3.90;1.08;;;;;;;25.44;37.97;101556.22;5067860;28;20028;-49
2022/09/16 03:49:53;;;;;;;2.20;0.90;;;;;;;25.42;37.64;101553.56;5071892;28;20483;-52
2022/09/16 03:52:21;;;;;;;4.80;1.30;;;;;;;25.42;38.00;101550.06;5070106;28;20077;-47
2022/09/16 03:54:50;;;;;;;3.80;1.00;;;;;;;25.39;37.76;101552.59;5070499;28;20055;-48
2022/09/16 03:57:19;;;;;;;2.90;0.95;;;;;;;25.39;37.86;101555.22;5070267;28;20128;-47
2022/09/16 03:59:47;;;;;;;5.75;1.45;;;;;;;25.43;37.60;101557.09;5069905;28;20055;-48
2022/09/16 04:02:16;;;;;;;4.05;0.95;;;;;;;25.38;37.96;101562.25;5071154;28;20028;-46
2022/09/16 04:04:44;;;;;;;2.58;0.90;;;;;;;25.38;37.99;101569.22;5074729;28;20032;-48
2022/09/16 04:07:13;;;;;;;3.28;1.10;;;;;;;25.37;38.07;101556.94;5074727;28;20023;-50
2022/09/16 04:09:41;;;;;;;2.15;0.95;;;;;;;25.35;37.77;101559.56;5074547;28;20024;-47
2022/09/16 04:12:10;;;;;;;4.22;1.27;;;;;;;25.34;37.78;101556.03;5069828;28;20500;-49
2022/09/16 04:14:39;;;;;;;2.78;1.35;;;;;;;25.26;38.01;101546.25;5068146;28;20033;-47
2022/09/16 04:17:07;;;;;;;3.70;1.30;;;;;;;25.31;38.17;101552.47;5072294;28;20036;-46
2022/09/16 04:19:36;;;;;;;3.92;1.30;;;;;;;25.32;37.80;101568.25;5069744;28;20398;-49
2022/09/16 04:22:04;;;;;;;3.33;0.93;;;;;;;25.28;38.27;101560.28;5075428;28;20043;-46
2022/09/16 04:24:33;;;;;;;3.88;1.05;;;;;;;25.32;38.04;101567.38;5075080;28;20024;-46
2022/09/16 04:27:01;;;;;;;3.90;1.30;;;;;;;25.31;37.84;101566.50;5045789;28;20048;-51
2022/09/16 04:29:31;;;;;;;4.47;1.33;;;;;;;25.27;38.06;101562.06;5073889;28;20363;-50
2022/09/16 04:31:59;;;;;;;4.53;1.35;;;;;;;25.27;37.79;101558.53;5075201;28;20074;-46
2022/09/16 04:34:28;;;;;;;3.15;1.20;;;;;;;25.29;38.20;101564.69;5069012;28;20161;-50
2022/09/16 04:36:56;;;;;;;2.95;1.15;;;;;;;25.26;37.98;101564.63;5073348;28;20025;-47
2022/09/16 04:39:25;;;;;;;3.97;1.20;;;;;;;25.32;37.80;101557.75;5073503;28;20086;-46
2022/09/16 04:41:53;;;;;;;4.07;1.33;;;;;;;25.36;37.92;101574.44;5069908;28;20043;-47
2022/09/16 04:44:21;;;;;;;4.38;1.30;;;;;;;25.37;38.10;101570.06;5069475;28;20097;-47
2022/09/16 04:46:50;;;;;;;3.45;1.17;;;;;;;25.27;37.95;101546.28;5068063;28;20475;-47
2022/09/16 04:49:19;;;;;;;2.80;0.90;;;;;;;25.40;37.90;101567.50;5076223;28;20024;-48
2022/09/16 04:51:47;;;;;;;1.95;0.90;;;;;;;25.36;38.00;101569.19;5070305;28;20028;-48
2022/09/16 04:54:16;;;;;;;4.82;1.40;;;;;;;25.30;38.33;101576.97;5070271;28;20433;-50
2022/09/16 04:56:44;;;;;;;3.10;0.98;;;;;;;25.33;37.96;101569.16;5070542;28;20457;-46
2022/09/16 04:59:12;;;;;;;2.35;0.93;;;;;;;25.48;38.05;101572.06;5065199;28;20123;-51
2022/09/16 05:01:42;;;;;;;2.95;1.30;;;;;;;25.50;38.15;101560.69;5051758;28;20040;-46
2022/09/16 05:04:11;;;;;;;2.30;0.82;;;;;;;25.48;37.97;101569.44;5069970;28;20028;-48
2022/09/16 05:06:41;;;;;;;2.70;0.73;;;;;;;25.55;38.00;101562.53;5069870;28;20456;-47
2022/09/16 05:09:12;;;;;;;4.75;1.20;;;;;;;25.58;37.85;101565.22;5069863;28;20035;-47
2022/09/16 05:11:41;;;;;;;2.42;0.95;;;;;;;25.54;38.12;101573.88;5076383;28;20032;-47
2022/09/16 05:14:14;;;;;;;3.60;1.17;;;;;;;25.49;38.03;101565.03;5069387;28;20051;-47
2022/09/16 05:16:43;;;;;;;2.60;0.88;;;;;;;25.56;38.03;101582.69;5069976;28;20032;-48
2022/09/16 05:19:13;;;;;;;2.88;1.00;;;;;;;25.58;38.08;101580.06;5069446;28;20032;-50
2022/09/16 05:21:42;;;;;;;5.13;1.25;;;;;;;25.57;38.41;101586.19;5069156;28;20041;-47
2022/09/16 05:24:12;;;;;;;3.95;1.45;;;;;;;25.57;38.39;101588.81;5069659;28;20392;-46
2022/09/16 05:26:42;;;;;;;3.47;1.15;;;;;;;25.54;38.27;101597.53;5069384;28;20063;-46
2022/09/16 05:29:14;;;;;;;3.92;1.25;;;;;;;25.54;38.30;101587.03;5069949;28;20028;-49
2022/09/16 05:31:43;;;;;;;1.90;0.80;;;;;;;25.51;38.71;101592.22;5072215;28;20107;-46
2022/09/16 05:34:16;;;;;;;8.27;1.20;;;;;;;25.55;38.60;101594.06;5072869;28;20033;-46
2022/09/16 05:36:46;;;;;;;2.97;1.13;;;;;;;25.61;38.60;101591.53;5079193;28;20024;-48
2022/09/16 05:39:16;;;;;;;4.22;1.30;;;;;;;25.63;38.52;101587.19;5078337;28;20093;-49
2022/09/16 05:41:45;;;;;;;3.38;0.82;;;;;;;25.62;38.41;101593.31;5078661;28;20039;-47
2022/09/16 05:44:14;;;;;;;5.55;1.00;;;;;;;25.63;38.31;101591.53;5078747;28;20032;-46
2022/09/16 05:46:43;;;;;;;3.28;1.20;;;;;;;25.57;38.71;101597.59;5071957;28;20037;-47
2022/09/16 05:49:12;;;;;;;3.45;0.85;;;;;;;25.57;38.70;101592.34;5074348;28;20483;-50
2022/09/16 05:51:40;;;;;;;4.80;1.13;;;;;;;25.59;38.87;101592.34;5073441;28;20121;-49
2022/09/16 05:54:09;;;;;;;4.38;1.20;;;;;;;25.54;38.95;101584.41;5072566;28;20454;-46
2022/09/16 05:56:38;;;;;;;3.22;0.95;;;;;;;25.59;38.52;101585.38;5072864;28;20047;-48
2022/09/16 05:59:06;;;;;;;3.42;1.30;;;;;;;25.59;38.69;101595.88;5079394;28;20119;-49
2022/09/16 06:01:36;;;;;;;4.82;1.55;;;;;;;25.61;38.48;101593.25;5073170;28;20051;-50
2022/09/16 06:04:06;;;;;;;7.10;1.25;;;;;;;25.61;38.77;101591.53;5078949;28;20478;-52
2022/09/16 06:06:37;;;;;;;7.75;1.02;;;;;;;25.54;38.70;101594.91;5073299;28;20474;-50
2022/09/16 06:09:09;;;;;;;2.90;1.02;;;;;;;25.58;38.78;101590.56;5072066;28;20028;-51
2022/09/16 06:11:39;;;;;;;4.82;1.30;;;;;;;25.59;38.69;101594.97;5073007;28;20024;-51
2022/09/16 06:14:08;;;;;;;3.75;0.88;;;;;;;25.61;38.52;101599.41;5073586;28;20381;-51
2022/09/16 06:16:37;;;;;;;4.53;1.08;;;;;;;25.61;38.64;101594.16;5072490;28;20033;-50
2022/09/16 06:19:09;;;;;;;2.90;0.93;;;;;;;25.53;38.66;101608.91;5072417;28;20506;-50
2022/09/16 06:21:38;;;;;;;1.98;0.90;;;;;;;25.58;38.73;101601.09;5066874;28;20037;-50
2022/09/16 06:24:07;;;;;;;5.05;1.17;;;;;;;25.54;38.93;101600.16;5072382;28;20033;-46
2022/09/16 06:26:36;;;;;;;3.05;1.02;;;;;;;25.62;38.68;101605.53;5071456;28;20043;-55
2022/09/16 06:29:05;;;;;;;4.75;1.15;;;;;;;25.65;38.67;101602.97;5077515;28;20040;-53
2022/09/16 06:31:34;;;;;;;2.85;1.10;;;;;;;25.62;38.79;101605.53;5077982;28;20031;-49
2022/09/16 06:34:01;;;;;;;3.67;1.20;;;;;;;25.62;38.77;101600.28;5077856;28;20036;-55
2022/09/16 06:36:32;;;;;;;5.22;1.20;;;;;;;25.41;39.10;101591.16;5078217;28;20093;-46
2022/09/16 06:39:00;;;;;;;7.60;0.90;;;;;;;25.58;38.76;101614.22;5072759;28;20034;-47
2022/09/16 06:41:30;;;;;;;4.38;0.80;;;;;;;25.57;38.84;101620.34;5077553;28;20038;-47
2022/09/16 06:43:59;;;;;;;4.60;1.10;;;;;;;25.58;38.86;101611.59;5071422;28;20143;-50
2022/09/16 06:46:28;;;;;;;5.90;1.50;;;;;;;25.59;38.79;101622.16;5073003;28;20502;-49
2022/09/16 06:48:57;;;;;;;3.70;1.30;;;;;;;25.68;38.82;101628.41;5047880;28;20082;-50
2022/09/16 06:51:27;;;;;;;4.88;1.23;;;;;;;25.70;38.83;101619.69;5075680;28;20498;-50
2022/09/16 06:54:00;;;;;;;4.10;1.10;;;;;;;25.73;38.83;101624.97;5071739;28;20139;-53
2022/09/16 06:56:28;;;;;;;4.85;1.30;;;;;;;25.78;38.77;101619.81;5074184;28;20106;-49
2022/09/16 06:58:57;;;;;;;4.88;0.95;;;;;;;25.78;38.79;101628.56;5056416;28;20395;-53
2022/09/16 07:01:28;;;;;;;3.85;1.40;;;;;;;25.74;38.98;101632.00;5071652;28;20028;-50
2022/09/16 07:03:57;;;;;;;5.60;1.45;;;;;;;25.83;38.86;101636.53;5074631;28;20038;-53
2022/09/16 07:06:28;;;;;;;4.43;1.40;;;;;;;25.88;38.83;101640.13;5073834;28;20036;-51
2022/09/16 07:08:56;;;;;;;3.65;1.02;;;;;;;25.91;38.92;101634.00;5071074;28;20024;-53
2022/09/16 07:11:24;;;;;;;6.93;1.10;;;;;;;25.95;38.72;101638.47;5049809;28;20036;-49
2022/09/16 07:13:53;;;;;;;5.18;1.40;;;;;;;25.95;38.72;101638.47;5074427;28;20427;-46
2022/09/16 07:16:25;;;;;;;6.00;1.40;;;;;;;25.98;39.03;101642.91;5071083;28;20042;-47
2022/09/16 07:18:54;;;;;;;6.45;1.27;;;;;;;25.91;38.92;101637.53;5074267;28;20083;-51
2022/09/16 07:21:24;;;;;;;5.00;1.02;;;;;;;26.00;39.07;101635.91;5055120;28;20471;-52
2022/09/16 07:23:56;;;;;;;3.97;1.17;;;;;;;25.97;38.88;101641.13;5071036;28;20028;-46
2022/09/16 07:26:27;;;;;;;2.05;0.90;;;;;;;26.00;38.75;101644.69;5066909;28;20032;-51
2022/09/16 07:28:58;;;;;;;3.20;1.20;;;;;;;26.09;39.11;101641.31;5073004;28;20053;-48
2022/09/16 07:31:29;;;;;;;7.10;1.30;;;;;;;26.14;39.00;101647.56;5071047;28;20028;-47
2022/09/16 07:34:00;;;;;;;8.77;1.27;;;;;;;26.17;38.89;101654.59;5072488;28;20032;-51
2022/09/16 07:36:32;;;;;;;4.03;1.00;;;;;;;26.17;39.09;101647.59;5072092;28;20028;-47
2022/09/16 07:39:01;;;;;;;3.15;0.90;;;;;;;26.22;39.07;101659.06;5073470;28;20100;-48
2022/09/16 07:41:32;;;;;;;5.97;1.08;;;;;;;26.23;39.07;101657.31;5075508;28;20082;-47
2022/09/16 07:44:01;;;;;;;5.88;1.15;;;;;;;26.22;39.39;101664.31;5071277;28;20024;-49
2022/09/16 07:46:31;;;;;;;4.57;1.00;;;;;;;26.18;39.23;101651.97;5075292;28;20032;-47
2022/09/16 07:49:01;;;;;;;2.03;0.68;;;;;;;26.28;39.31;101668.78;5065945;28;20027;-47
2022/09/16 07:51:30;;;;;;;3.55;1.20;;;;;;;26.23;39.45;101660.84;5069632;28;20033;-50
2022/09/16 07:54:02;;;;;;;3.40;1.23;;;;;;;26.33;39.40;101666.22;5069236;28;20655;-50
2022/09/16 07:56:33;;;;;;;10.23;1.48;;;;;;;26.37;39.35;101668.03;5076531;28;20086;-51
2022/09/16 07:59:03;;;;;;;2.90;0.95;;;;;;;26.41;39.37;101671.56;5029894;28;20500;-47
2022/09/16 08:01:32;;;;;;;9.35;1.42;;;;;;;26.42;39.16;101658.47;5066219;28;20103;-50
2022/09/16 08:04:01;;;;;;;5.25;1.25;;;;;;;26.49;39.17;101673.44;5070114;28;20517;-49
2022/09/16 08:06:32;;;;;;;4.10;1.15;;;;;;;26.49;39.25;101676.09;5049594;28;20020;-50
2022/09/16 08:09:01;;;;;;;3.22;0.93;;;;;;;26.50;39.22;101674.34;5073058;28;20505;-47
2022/09/16 08:11:30;;;;;;;6.85;1.08;;;;;;;26.53;39.39;101685.78;5074767;28;20456;-49
2022/09/16 08:14:00;;;;;;;3.20;1.15;;;;;;;26.59;39.35;101687.63;5072544;28;20028;-50
2022/09/16 08:16:29;;;;;;;2.67;0.80;;;;;;;26.61;39.20;101683.25;5072748;28;20028;-48
2022/09/16 08:18:58;;;;;;;3.88;0.77;;;;;;;26.65;39.45;101689.44;5072309;28;20024;-50
2022/09/16 08:21:29;;;;;;;7.60;1.20;;;;;;;26.69;39.48;101683.38;5065937;28;20487;-51
2022/09/16 08:23:59;;;;;;;1.60;0.80;;;;;;;26.72;39.48;101688.66;5069865;28;20505;-51
2022/09/16 08:26:28;;;;;;;3.17;1.00;;;;;;;26.73;39.62;101695.72;5068080;28;20028;-50
2022/09/16 08:28:56;;;;;;;3.50;0.77;;;;;;;26.77;39.45;101699.25;5073042;28;20406;-51
2022/09/16 08:31:24;;;;;;;3.53;1.33;;;;;;;26.81;39.49;101693.19;5069765;28;20032;-52
2022/09/16 08:33:53;;;;;;;2.85;1.00;;;;;;;26.83;39.52;101699.38;5072481;28;20062;-47
2022/09/16 08:36:24;;;;;;;4.47;1.38;;;;;;;26.85;39.38;101695.03;5072889;28;20447;-48
2022/09/16 08:38:55;;;;;;;3.65;1.13;;;;;;;26.86;39.61;101706.41;5072349;28;20463;-48
2022/09/16 08:42:01;;;;;;;10.80;1.77;;;;;;;26.89;39.39;101703.81;5072133;28;20032;-46
2022/09/16 08:44:59;;;;;;;4.07;1.20;;;;;;;26.91;39.26;101702.09;5065889;28;21008;-46
2022/09/16 08:47:55;;;;;;;5.53;1.42;;;;;;;26.94;38.01;101710.91;5062360;28;20189;-47
2022/09/16 08:50:28;;;;;;;10.55;1.90;;;;;;;26.92;37.57;101712.63;5063488;28;20081;-47
2022/09/16 08:52:59;;;;;;;12.73;1.95;;;;;;;26.74;37.33;101715.00;5051937;28;20037;-47
2022/09/16 08:55:37;;;;;;;6.70;1.65;;;;;;;26.69;37.37;101707.06;5069235;28;20028;-48
2022/09/16 08:58:17;;;;;;;4.47;1.23;;;;;;;26.63;37.28;101712.25;5069523;28;21132;-51
2022/09/16 09:00:50;;;;;;;4.22;1.30;;;;;;;26.65;37.23;101718.41;5069111;28;20918;-49
2022/09/16 09:03:38;;;;;;;9.23;1.77;;;;;;;26.52;36.90;101715.59;5073805;28;20028;-48
2022/09/16 09:06:17;;;;;;;7.45;1.52;;;;;;;26.49;36.91;101726.06;5072686;28;20063;-49
2022/09/16 09:09:03;;;;;;;8.55;2.13;;;;;;;26.41;36.97;101717.19;5052713;28;20040;-50
2022/09/16 09:11:43;;;;;;;7.18;2.00;;;;;;;26.36;36.68;101719.78;5053007;28;20458;-57
2022/09/16 09:14:44;;;;;;;4.82;1.02;;;;;;;26.27;36.50;101724.88;5070505;28;20487;-48
2022/09/16 09:17:15;;;;;;;6.72;1.75;;;;;;;26.28;36.26;101718.75;5069492;28;20044;-46
2022/09/16 09:19:43;;;;;;;7.30;1.73;;;;;;;26.33;36.76;101724.09;5068845;28;20035;-49
2022/09/16 09:22:38;;;;;;;11.07;1.50;;;;;;;26.32;36.56;101736.38;5070123;28;20032;-51
2022/09/16 09:25:21;;;;;;;6.75;1.65;;;;;;;26.32;36.44;101735.47;5050642;28;20040;-47
2022/09/16 09:28:00;;;;;;;3.88;1.30;;;;;;;26.24;36.63;101735.34;5051835;28;20394;-48
2022/09/16 09:30:29;;;;;;;5.55;1.40;;;;;;;26.24;36.80;101737.97;5050979;28;20486;-47
2022/09/16 09:33:27;;;;;;;4.85;1.25;;;;;;;26.19;36.27;101742.31;5073082;28;20036;-47
2022/09/16 09:36:01;;;;;;;5.00;1.17;;;;;;;26.24;36.00;101737.97;5063374;28;20086;-46
2022/09/16 09:38:49;;;;;;;6.97;1.83;;;;;;;26.13;36.01;101743.09;5049875;28;20020;-47
2022/09/16 09:41:24;;;;;;;2.42;0.88;;;;;;;26.08;35.95;101742.09;5074896;28;20075;-46
2022/09/16 09:44:01;;;;;;;2.35;0.90;;;;;;;26.09;35.24;101752.63;5072269;28;20036;-49
2022/09/16 09:46:36;;;;;;;5.10;1.65;;;;;;;26.06;35.50;101754.31;5054444;28;20368;-46
2022/09/16 09:49:11;;;;;;;6.20;1.45;;;;;;;26.05;35.55;101757.81;5075358;28;20380;-47
2022/09/16 09:51:48;;;;;;;4.28;1.40;;;;;;;26.13;34.94;101752.72;5050957;28;20024;-46
2022/09/16 09:54:35;;;;;;;3.72;1.35;;;;;;;26.03;34.75;101762.16;5052571;28;20513;-46
2022/09/16 09:57:25;;;;;;;4.90;1.00;;;;;;;25.99;34.53;101762.94;5069041;28;20057;-48
2022/09/16 09:59:58;;;;;;;4.65;1.73;;;;;;;25.93;34.46;101762.00;5059959;28;20395;-47
2022/09/16 10:02:27;;;;;;;3.67;1.00;;;;;;;25.96;34.19;101749.78;5050830;28;20047;-48
2022/09/16 10:04:55;;;;;;;4.30;1.08;;;;;;;26.00;33.38;101762.09;5071319;28;20036;-48
2022/09/16 10:07:25;;;;;;;3.88;1.02;;;;;;;25.97;31.99;101762.06;5070983;28;20021;-51
2022/09/16 10:10:15;;;;;;;3.15;0.90;;;;;;;25.98;31.83;101755.94;5070998;28;20036;-50
2022/09/16 10:12:44;;;;;;;3.60;0.80;;;;;;;25.86;32.78;101754.88;5066672;28;20372;-47
2022/09/16 10:15:27;;;;;;;2.60;0.93;;;;;;;25.91;33.33;101760.19;5071551;28;20112;-47
2022/09/16 10:17:55;;;;;;;5.82;0.93;;;;;;;25.97;32.83;101752.41;5069603;28;21037;-47
2022/09/16 10:20:27;;;;;;;5.93;0.88;;;;;;;26.01;32.30;101756.88;5056699;28;20024;-49
2022/09/16 10:22:58;;;;;;;1.63;0.52;;;;;;;26.03;32.16;101751.63;5068324;28;20067;-48
2022/09/16 10:25:25;;;;;;;2.20;0.70;;;;;;;25.93;31.83;101751.50;5068410;28;20024;-51
2022/09/16 10:27:57;;;;;;;4.43;1.05;;;;;;;26.03;32.49;101749.91;5051965;28;20048;-50
2022/09/16 10:30:25;;;;;;;3.40;0.93;;;;;;;25.77;31.65;101731.06;5068246;28;20036;-49
2022/09/16 10:32:56;;;;;;;3.15;0.60;;;;;;;25.86;32.08;101756.63;5049173;28;20403;-50
2022/09/16 10:35:26;;;;;;;1.98;0.75;;;;;;;25.92;32.22;101754.97;5068135;28;20480;-47
2022/09/16 10:37:56;;;;;;;4.18;0.80;;;;;;;25.83;31.77;101746.91;5068729;28;20050;-49
2022/09/16 10:40:25;;;;;;;4.25;0.73;;;;;;;25.92;31.39;101754.97;5049016;28;20029;-48
2022/09/16 10:42:59;;;;;;;2.75;0.50;;;;;;;25.90;32.07;101756.69;5069013;28;20130;-46
2022/09/16 10:45:30;;;;;;;4.40;0.60;;;;;;;25.94;31.79;101749.72;5071377;28;20028;-50
2022/09/16 10:48:01;;;;;;;2.40;0.60;;;;;;;25.89;31.62;101746.16;5054390;28;20043;-51
2022/09/16 10:50:30;;;;;;;3.30;1.10;;;;;;;25.91;31.70;101747.94;5073066;28;20535;-48
2022/09/16 10:52:57;;;;;;;2.03;0.50;;;;;;;25.92;31.78;101754.06;5069579;28;20025;-50
2022/09/16 10:55:34;;;;;;;3.03;0.70;;;;;;;26.01;32.41;101745.47;5070623;28;20025;-47
2022/09/16 10:58:21;;;;;;;2.38;0.80;;;;;;;26.07;31.81;101748.22;5053604;28;20027;-51
2022/09/16 11:01:11;;;;;;;1.70;0.60;;;;;;;26.12;31.30;101741.31;5069329;28;20024;-48
2022/09/16 11:03:58;;;;;;;2.17;0.60;;;;;;;26.17;31.43;101734.38;5061051;28;20038;-50
2022/09/16 11:06:45;;;;;;;3.00;0.60;;;;;;;26.12;31.77;101738.69;5067237;28;20052;-52
2022/09/16 11:09:27;;;;;;;2.45;0.60;;;;;;;26.17;31.76;101734.38;5066406;28;20055;-48
2022/09/16 11:12:14;;;;;;;2.88;0.90;;;;;;;26.24;32.28;101731.00;5052635;28;20048;-48
2022/09/16 11:14:54;;;;;;;2.95;0.80;;;;;;;25.94;31.14;101719.09;5062968;28;20084;-47
2022/09/16 11:18:00;;;;;;;3.65;0.85;;;;;;;26.01;31.57;101732.31;5066310;28;20446;-50
2022/09/16 11:21:04;;;;;;;2.53;0.80;;;;;;;25.84;32.06;101738.19;5061890;28;20119;-51
2022/09/16 11:23:41;;;;;;;1.50;0.40;;;;;;;25.86;31.97;101733.84;5067249;28;20131;-49
2022/09/16 11:26:18;;;;;;;2.08;0.68;;;;;;;25.82;31.46;101724.13;5069160;28;20063;-47
2022/09/16 11:28:58;;;;;;;3.90;0.77;;;;;;;25.83;31.63;101725.88;5070953;28;20052;-47
2022/09/16 11:31:41;;;;;;;3.22;1.00;;;;;;;25.70;31.81;101731.78;5069648;28;20112;-48
2022/09/16 11:34:26;;;;;;;2.47;0.77;;;;;;;25.73;32.60;101735.34;5050605;28;20029;-51
2022/09/16 11:36:53;;;;;;;3.58;1.33;;;;;;;25.76;32.59;101742.44;5072508;28;20686;-48
2022/09/16 11:39:44;;;;;;;3.10;0.90;;;;;;;25.78;32.21;101738.09;5066042;28;20494;-46
2022/09/16 11:42:30;;;;;;;2.10;0.80;;;;;;;25.81;32.46;101735.53;5058924;28;20050;-50
2022/09/16 11:45:02;;;;;;;3.72;1.30;;;;;;;25.82;32.53;101737.25;5070376;28;20066;-51
2022/09/16 11:47:53;;;;;;;3.10;0.80;;;;;;;25.79;32.96;101739.84;5065664;28;20104;-50
2022/09/16 11:50:41;;;;;;;3.85;1.08;;;;;;;25.92;32.83;101738.31;5068685;28;20050;-47
2022/09/16 11:53:34;;;;;;;4.25;1.35;;;;;;;25.80;32.61;101728.50;5069670;28;20056;-48
2022/09/16 11:56:26;;;;;;;4.10;0.93;;;;;;;25.82;32.64;101728.50;5048786;28;20047;-47
2022/09/16 11:59:00;;;;;;;3.78;1.48;;;;;;;25.90;32.82;101730.41;5067172;28;20036;-48